createdAt,value
2024-02-26T00:02:05.222Z,80.31
2024-02-26T00:04:32.529Z,80.21
2024-02-26T00:06:59.926Z,80.23
2024-02-26T00:09:27.235Z,80.10
2024-02-26T00:11:54.600Z,80.35
2024-02-26T00:14:21.869Z,80.38
2024-02-26T00:16:49.160Z,80.35
2024-02-26T00:19:16.575Z,80.44
2024-02-26T00:21:43.954Z,80.22
2024-02-26T00:24:11.393Z,80.55
2024-02-26T00:26:38.674Z,80.42
2024-02-26T00:29:06.104Z,80.63
2024-02-26T00:31:33.457Z,80.58
2024-02-26T00:34:02.154Z,80.38
2024-02-26T00:36:29.657Z,80.56
2024-02-26T00:38:57.118Z,80.42
2024-02-26T00:41:24.753Z,80.50
2024-02-26T00:43:51.965Z,80.58
2024-02-26T00:46:19.349Z,80.54
2024-02-26T00:48:46.696Z,80.47
2024-02-26T00:51:14.140Z,80.57
2024-02-26T00:53:41.446Z,80.66
2024-02-26T00:56:08.803Z,80.42
2024-02-26T00:58:36.032Z,80.71
2024-02-26T01:01:04.509Z,80.60
2024-02-26T01:03:31.864Z,80.73
2024-02-26T01:05:59.903Z,80.78
2024-02-26T01:08:27.415Z,80.79
2024-02-26T01:10:54.749Z,80.66
2024-02-26T01:13:22.020Z,80.82
2024-02-26T01:15:49.391Z,80.99
2024-02-26T01:18:16.807Z,80.98
2024-02-26T01:20:44.241Z,80.68
2024-02-26T01:23:11.543Z,80.80
2024-02-26T01:25:38.939Z,81.02
2024-02-26T01:28:06.862Z,81.08
2024-02-26T01:30:34.320Z,80.85
2024-02-26T01:33:01.758Z,81.12
2024-02-26T01:35:29.078Z,80.91
2024-02-26T01:37:56.960Z,80.74
2024-02-26T01:40:24.341Z,80.85
2024-02-26T01:42:54.166Z,81.13
2024-02-26T01:45:26.508Z,81.07
2024-02-26T01:47:54.502Z,81.22
2024-02-26T01:50:23.707Z,81.24
2024-02-26T01:52:51.722Z,80.99
2024-02-26T01:55:20.007Z,81.39
2024-02-26T01:57:48.008Z,81.15
2024-02-26T02:00:16.396Z,81.11
2024-02-26T02:02:45.274Z,81.51
2024-02-26T02:05:13.317Z,81.31
2024-02-26T02:07:40.905Z,81.38
2024-02-26T02:10:08.972Z,81.57
2024-02-26T02:12:37.349Z,81.19
2024-02-26T02:15:05.518Z,81.72
2024-02-26T02:17:32.964Z,81.81
2024-02-26T02:20:00.350Z,81.38
2024-02-26T02:22:27.782Z,81.45
2024-02-26T02:24:55.075Z,81.59
2024-02-26T02:27:22.752Z,81.87
2024-02-26T02:29:50.430Z,81.73
2024-02-26T02:32:17.927Z,81.67
2024-02-26T02:34:45.854Z,81.64
2024-02-26T02:37:13.215Z,81.76
2024-02-26T02:39:40.428Z,81.85
2024-02-26T02:42:07.746Z,81.74
2024-02-26T02:44:35.063Z,81.61
2024-02-26T02:47:02.268Z,81.91
2024-02-26T02:49:29.602Z,81.80
2024-02-26T02:51:58.887Z,81.78
2024-02-26T02:54:26.288Z,81.91
2024-02-26T02:56:53.586Z,82.16
2024-02-26T02:59:20.873Z,81.84
2024-02-26T03:01:48.165Z,81.78
2024-02-26T03:04:15.537Z,82.03
2024-02-26T03:06:42.799Z,81.96
2024-02-26T03:09:10.253Z,82.47
2024-02-26T03:11:37.528Z,81.86
2024-02-26T03:14:05.874Z,82.15
2024-02-26T03:16:33.233Z,81.99
2024-02-26T03:19:00.703Z,82.40
2024-02-26T03:21:28.914Z,82.25
2024-02-26T03:23:56.653Z,81.95
2024-02-26T03:26:24.037Z,82.22
2024-02-26T03:28:51.255Z,82.38
2024-02-26T03:31:18.472Z,82.42
2024-02-26T03:33:45.920Z,82.39
2024-02-26T03:36:13.508Z,82.54
2024-02-26T03:38:41.656Z,82.13
2024-02-26T03:41:09.984Z,82.72
2024-02-26T03:43:37.224Z,82.56
2024-02-26T03:46:04.608Z,82.44
2024-02-26T03:48:32.113Z,82.40
2024-02-26T03:50:59.365Z,82.39
2024-02-26T03:53:26.602Z,82.50
2024-02-26T03:55:54.074Z,82.41
2024-02-26T03:58:21.276Z,82.63
2024-02-26T04:00:51.240Z,82.56
2024-02-26T04:03:18.496Z,82.40
2024-02-26T04:05:45.887Z,82.49
2024-02-26T04:08:13.415Z,82.93
2024-02-26T04:10:40.743Z,82.64
2024-02-26T04:13:09.034Z,82.79
2024-02-26T04:15:36.674Z,82.96
2024-02-26T04:18:04.542Z,82.84
2024-02-26T04:20:31.940Z,82.79
2024-02-26T04:22:59.182Z,82.92
2024-02-26T04:25:26.423Z,82.75
2024-02-26T04:27:53.734Z,82.90
2024-02-26T04:30:21.071Z,82.77
2024-02-26T04:32:48.559Z,82.78
2024-02-26T04:35:15.998Z,82.89
2024-02-26T04:37:43.123Z,83.02
2024-02-26T04:40:10.725Z,83.02
2024-02-26T04:42:38.056Z,83.14
2024-02-26T04:45:05.718Z,83.03
2024-02-26T04:47:32.900Z,83.13
2024-02-26T04:50:00.261Z,83.27
2024-02-26T04:52:27.539Z,83.16
2024-02-26T04:54:55.851Z,83.06
2024-02-26T04:57:23.617Z,83.15
2024-02-26T04:59:50.956Z,83.29
2024-02-26T05:02:18.292Z,83.17
2024-02-26T05:04:45.520Z,83.25
2024-02-26T05:07:14.088Z,83.38
2024-02-26T05:09:43.495Z,83.29
2024-02-26T05:12:11.641Z,83.28
2024-02-26T05:14:38.878Z,83.58
2024-02-26T05:17:07.399Z,83.34
2024-02-26T05:19:34.643Z,83.38
2024-02-26T05:22:01.942Z,83.43
2024-02-26T05:24:29.451Z,83.66
2024-02-26T05:26:57.074Z,83.37
2024-02-26T05:29:24.281Z,83.49
2024-02-26T05:31:51.578Z,83.54
2024-02-26T05:34:19.167Z,83.33
2024-02-26T05:36:46.558Z,83.71
2024-02-26T05:39:16.892Z,83.43
2024-02-26T05:41:46.106Z,83.66
2024-02-26T05:44:13.456Z,83.39
2024-02-26T05:46:40.760Z,83.67
2024-02-26T05:49:08.940Z,83.54
2024-02-26T05:51:36.266Z,83.61
2024-02-26T05:54:03.663Z,83.66
2024-02-26T05:56:30.905Z,83.72
2024-02-26T05:58:58.230Z,83.60
2024-02-26T06:01:27.286Z,83.60
2024-02-26T06:03:54.582Z,83.50
2024-02-26T06:06:24.472Z,84.00
2024-02-26T06:08:52.062Z,83.79
2024-02-26T06:11:19.606Z,83.74
2024-02-26T06:13:46.877Z,83.81
2024-02-26T06:16:14.216Z,83.87
2024-02-26T06:18:41.671Z,83.98
2024-02-26T06:21:12.404Z,84.11
2024-02-26T06:23:41.644Z,83.86
2024-02-26T06:26:09.013Z,83.91
2024-02-26T06:28:37.268Z,83.88
2024-02-26T06:31:04.862Z,84.05
2024-02-26T06:33:32.365Z,84.03
2024-02-26T06:36:00.195Z,83.99
2024-02-26T06:38:27.637Z,84.00
2024-02-26T06:40:55.089Z,84.04
2024-02-26T06:43:22.358Z,84.04
2024-02-26T06:45:49.588Z,84.09
2024-02-26T06:48:16.970Z,84.08
2024-02-26T06:50:44.348Z,84.28
2024-02-26T06:53:11.765Z,84.00
2024-02-26T06:55:41.627Z,83.92
2024-02-26T06:58:09.269Z,84.40
2024-02-26T07:00:37.081Z,84.31
2024-02-26T07:03:04.837Z,83.96
2024-02-26T07:05:32.413Z,84.47
2024-02-26T07:07:59.612Z,83.82
2024-02-26T07:10:26.793Z,84.18
2024-02-26T07:12:54.101Z,84.14
2024-02-26T07:15:21.326Z,84.28
2024-02-26T07:17:50.156Z,84.23
2024-02-26T07:20:19.681Z,84.29
2024-02-26T07:22:47.358Z,84.45
2024-02-26T07:25:15.027Z,84.47
2024-02-26T07:27:42.363Z,84.42
2024-02-26T07:30:10.860Z,84.47
2024-02-26T07:32:38.180Z,84.25
2024-02-26T07:35:06.644Z,84.45
2024-02-26T07:37:34.214Z,84.40
2024-02-26T07:40:01.596Z,84.51
2024-02-26T07:42:29.032Z,84.51
2024-02-26T07:44:57.145Z,84.59
2024-02-26T07:47:24.467Z,84.58
2024-02-26T07:49:51.867Z,84.61
2024-02-26T07:52:19.372Z,84.47
2024-02-26T07:54:46.626Z,84.53
2024-02-26T07:57:16.891Z,84.65
2024-02-26T07:59:44.367Z,84.55
2024-02-26T08:02:11.791Z,84.63
2024-02-26T08:04:39.075Z,84.55
2024-02-26T08:07:07.331Z,84.57
2024-02-26T08:09:35.053Z,84.68
2024-02-26T08:12:02.430Z,84.69
2024-02-26T08:14:29.633Z,84.59
2024-02-26T08:16:56.835Z,84.68
2024-02-26T08:19:24.202Z,84.67
2024-02-26T08:21:51.561Z,84.49
2024-02-26T08:24:19.180Z,85.02
2024-02-26T08:26:46.887Z,85.01
2024-02-26T08:29:14.196Z,84.70
2024-02-26T08:31:41.501Z,84.90
2024-02-26T08:34:08.824Z,84.90
2024-02-26T08:36:36.545Z,84.83
2024-02-26T08:39:04.168Z,84.71
2024-02-26T08:41:31.424Z,84.56
2024-02-26T08:43:59.601Z,84.92
2024-02-26T08:46:26.856Z,84.86
2024-02-26T08:48:54.332Z,84.98
2024-02-26T08:51:22.094Z,85.14
2024-02-26T08:53:49.805Z,85.26
2024-02-26T08:56:19.191Z,84.66
2024-02-26T08:58:50.127Z,84.98
2024-02-26T09:01:18.157Z,84.88
2024-02-26T09:03:45.605Z,84.98
2024-02-26T09:06:15.893Z,85.05
2024-02-26T09:08:43.261Z,84.87
2024-02-26T09:11:11.889Z,84.93
2024-02-26T09:13:39.181Z,84.82
2024-02-26T09:16:07.414Z,85.10
2024-02-26T09:18:36.916Z,84.75
2024-02-26T09:21:07.829Z,85.00
2024-02-26T09:23:36.538Z,85.08
2024-02-26T09:26:03.967Z,84.96
2024-02-26T09:28:33.137Z,85.06
2024-02-26T09:31:00.421Z,84.77
2024-02-26T09:33:27.870Z,84.66
2024-02-26T09:35:55.266Z,84.74
2024-02-26T09:38:22.651Z,84.63
2024-02-26T09:40:50.040Z,84.80
2024-02-26T09:43:19.132Z,84.75
2024-02-26T09:45:46.447Z,84.40
2024-02-26T09:48:14.914Z,84.09
2024-02-26T09:50:42.697Z,84.33
2024-02-26T09:53:11.790Z,84.34
2024-02-26T09:55:39.094Z,84.17
2024-02-26T09:58:07.797Z,84.30
2024-02-26T10:00:38.944Z,83.87
2024-02-26T10:03:08.040Z,83.86
2024-02-26T10:05:36.532Z,84.03
2024-02-26T10:08:05.856Z,83.84
2024-02-26T10:10:34.501Z,83.56
2024-02-26T10:13:02.726Z,83.82
2024-02-26T10:15:30.329Z,83.44
2024-02-26T10:17:58.158Z,83.32
2024-02-26T10:20:27.766Z,83.33
2024-02-26T10:22:55.112Z,83.23
2024-02-26T10:25:22.477Z,83.15
2024-02-26T10:27:49.710Z,82.79
2024-02-26T10:30:27.266Z,83.32
2024-02-26T10:32:54.828Z,82.93
2024-02-26T10:35:22.413Z,82.82
2024-02-26T10:37:51.275Z,82.64
2024-02-26T10:40:18.606Z,82.71
2024-02-26T10:42:48.519Z,82.61
2024-02-26T10:45:16.245Z,82.19
2024-02-26T10:47:43.966Z,82.34
2024-02-26T10:50:11.699Z,81.73
2024-02-26T10:52:39.013Z,82.20
2024-02-26T10:55:08.546Z,81.98
2024-02-26T10:57:42.256Z,82.05
2024-02-26T11:00:12.097Z,82.16
2024-02-26T11:02:39.990Z,81.29
2024-02-26T11:05:08.102Z,81.71
2024-02-26T11:07:38.561Z,81.61
2024-02-26T11:10:09.879Z,81.27
2024-02-26T11:12:39.026Z,81.27
2024-02-26T11:15:07.165Z,80.82
2024-02-26T11:17:35.793Z,80.78
2024-02-26T11:20:06.913Z,80.96
2024-02-26T11:22:34.987Z,80.92
2024-02-26T11:25:02.768Z,80.76
2024-02-26T11:27:34.378Z,80.42
2024-02-26T11:30:02.478Z,80.49
2024-02-26T11:32:32.890Z,80.08
2024-02-26T11:35:00.670Z,80.17
2024-02-26T11:37:28.161Z,79.76
2024-02-26T11:39:55.502Z,79.60
2024-02-26T11:42:30.223Z,79.34
2024-02-26T11:45:02.193Z,79.58
2024-02-26T11:47:30.003Z,79.21
2024-02-26T11:49:57.263Z,78.80
2024-02-26T11:52:24.801Z,78.71
2024-02-26T11:54:54.526Z,78.78
2024-02-26T11:57:34.181Z,78.56
2024-02-26T12:00:07.967Z,77.99
2024-02-26T12:02:49.218Z,77.86
2024-02-26T12:05:29.495Z,77.87
2024-02-26T12:08:01.229Z,77.82
2024-02-26T12:10:35.536Z,77.43
2024-02-26T12:13:18.743Z,77.09
2024-02-26T12:16:00.852Z,77.38
2024-02-26T12:18:30.982Z,76.87
2024-02-26T12:21:02.916Z,77.08
2024-02-26T12:23:30.629Z,76.64
2024-02-26T12:26:03.260Z,76.73
2024-02-26T12:28:32.038Z,76.64
2024-02-26T12:31:01.214Z,76.30
2024-02-26T12:33:29.934Z,76.64
2024-02-26T12:35:58.254Z,76.56
2024-02-26T12:38:25.742Z,76.57
2024-02-26T12:40:53.078Z,76.30
2024-02-26T12:43:20.758Z,76.31
2024-02-26T12:45:49.148Z,76.31
2024-02-26T12:48:16.975Z,76.44
2024-02-26T12:50:49.009Z,76.15
2024-02-26T12:53:16.677Z,76.06
2024-02-26T12:55:44.354Z,75.93
2024-02-26T12:58:12.529Z,75.96
2024-02-26T13:00:39.919Z,76.06
2024-02-26T13:03:07.588Z,76.24
2024-02-26T13:05:35.285Z,75.69
2024-02-26T13:08:05.498Z,75.70
2024-02-26T13:10:35.979Z,76.01
2024-02-26T13:13:04.055Z,75.52
2024-02-26T13:15:31.552Z,75.37
2024-02-26T13:17:59.673Z,75.96
2024-02-26T13:20:31.649Z,75.93
2024-02-26T13:23:07.797Z,75.54
2024-02-26T13:25:43.837Z,75.55
2024-02-26T13:28:19.269Z,76.06
2024-02-26T13:30:54.267Z,75.76
2024-02-26T13:33:22.523Z,75.27
2024-02-26T13:35:49.911Z,75.56
2024-02-26T13:38:17.347Z,75.29
2024-02-26T13:40:44.613Z,75.54
2024-02-26T13:43:11.918Z,75.40
2024-02-26T13:45:40.365Z,75.24
2024-02-26T13:48:12.996Z,75.42
2024-02-26T13:50:41.168Z,75.81
2024-02-26T13:53:08.550Z,75.24
2024-02-26T13:55:35.826Z,75.58
2024-02-26T13:58:03.201Z,75.69
2024-02-26T14:00:33.202Z,75.70
2024-02-26T14:03:01.762Z,75.75
2024-02-26T14:05:29.065Z,75.61
2024-02-26T14:07:57.014Z,75.79
2024-02-26T14:10:24.424Z,75.46
2024-02-26T14:12:51.845Z,76.09
2024-02-26T14:15:19.345Z,75.68
2024-02-26T14:17:47.555Z,75.71
2024-02-26T14:20:15.056Z,76.31
2024-02-26T14:22:42.281Z,76.04
2024-02-26T14:25:10.903Z,76.00
2024-02-26T14:27:38.264Z,76.26
2024-02-26T14:30:06.173Z,75.91
2024-02-26T14:32:38.190Z,75.95
2024-02-26T14:35:08.866Z,76.43
2024-02-26T14:37:37.993Z,75.82
2024-02-26T14:40:06.675Z,76.25
2024-02-26T14:42:34.033Z,76.33
2024-02-26T14:45:01.466Z,76.57
2024-02-26T14:47:28.826Z,76.81
2024-02-26T14:49:56.097Z,76.34
2024-02-26T14:52:23.412Z,76.43
2024-02-26T14:54:52.698Z,76.65
2024-02-26T14:57:20.207Z,76.63
2024-02-26T14:59:47.535Z,76.51
2024-02-26T15:02:15.597Z,76.78
2024-02-26T15:04:42.982Z,76.75
2024-02-26T15:07:13.640Z,77.16
2024-02-26T15:09:43.157Z,77.00
2024-02-26T15:12:10.823Z,77.07
2024-02-26T15:14:38.158Z,77.00
2024-02-26T15:17:05.730Z,77.46
2024-02-26T15:19:33.305Z,77.18
2024-02-26T15:22:00.698Z,77.37
2024-02-26T15:24:28.794Z,77.31
2024-02-26T15:26:56.103Z,77.69
2024-02-26T15:29:23.404Z,77.69
2024-02-26T15:31:50.731Z,77.97
2024-02-26T15:34:17.974Z,77.62
2024-02-26T15:36:45.449Z,77.71
2024-02-26T15:39:12.681Z,77.77
2024-02-26T15:41:40.318Z,77.63
2024-02-26T15:44:07.825Z,78.05
2024-02-26T15:46:35.190Z,78.36
2024-02-26T15:49:03.361Z,78.02
2024-02-26T15:51:30.730Z,78.13
2024-02-26T15:53:58.097Z,78.72
2024-02-26T15:56:26.119Z,78.29
2024-02-26T15:58:54.133Z,78.45
2024-02-26T16:01:24.771Z,78.60
2024-02-26T16:03:55.882Z,78.70
2024-02-26T16:06:29.858Z,79.26
2024-02-26T16:08:57.384Z,79.36
2024-02-26T16:11:24.754Z,78.93
2024-02-26T16:14:09.963Z,79.58
2024-02-26T16:16:37.390Z,79.25
2024-02-26T16:19:11.101Z,79.74
2024-02-26T16:21:39.221Z,79.30
2024-02-26T16:24:07.184Z,79.83
2024-02-26T16:26:34.530Z,79.55
2024-02-26T16:29:01.773Z,79.75
2024-02-26T16:31:30.450Z,79.89
2024-02-26T16:33:57.919Z,80.16
2024-02-26T16:36:25.365Z,80.33
2024-02-26T16:38:52.697Z,80.31
2024-02-26T16:41:19.938Z,80.46
2024-02-26T16:43:47.668Z,80.05
2024-02-26T16:46:16.916Z,80.16
2024-02-26T16:48:44.794Z,80.21
2024-02-26T16:51:12.214Z,80.83
2024-02-26T16:53:39.407Z,80.47
2024-02-26T16:56:11.390Z,80.37
2024-02-26T16:58:38.778Z,80.53
2024-02-26T17:01:06.777Z,81.13
2024-02-26T17:03:39.446Z,80.99
2024-02-26T17:06:07.126Z,81.29
2024-02-26T17:08:35.077Z,81.00
2024-02-26T17:11:02.474Z,81.09
2024-02-26T17:13:32.859Z,81.16
2024-02-26T17:16:00.208Z,81.61
2024-02-26T17:18:27.515Z,81.63
2024-02-26T17:20:56.967Z,81.46
2024-02-26T17:23:24.238Z,81.60
2024-02-26T17:25:51.501Z,81.45
2024-02-26T17:28:19.734Z,81.54
2024-02-26T17:30:47.095Z,81.77
2024-02-26T17:33:14.382Z,81.55
2024-02-26T17:35:41.967Z,82.06
2024-02-26T17:38:09.158Z,81.57
2024-02-26T17:40:37.766Z,82.00
2024-02-26T17:43:04.981Z,81.81
2024-02-26T17:45:32.460Z,81.76
2024-02-26T17:47:59.873Z,81.82
2024-02-26T17:50:28.264Z,81.73
2024-02-26T17:52:57.976Z,82.00
2024-02-26T17:55:25.280Z,81.81
2024-02-26T17:57:52.816Z,82.21
2024-02-26T18:00:20.648Z,81.87
2024-02-26T18:02:48.250Z,82.20
2024-02-26T18:05:15.746Z,82.04
2024-02-26T18:07:44.222Z,82.15
2024-02-26T18:10:13.561Z,82.32
2024-02-26T18:12:41.567Z,82.41
2024-02-26T18:15:09.452Z,82.07
2024-02-26T18:17:40.013Z,82.11
2024-02-26T18:20:09.777Z,82.53
2024-02-26T18:22:37.996Z,81.95
2024-02-26T18:25:06.169Z,82.10
2024-02-26T18:27:35.471Z,82.68
2024-02-26T18:30:04.514Z,82.23
2024-02-26T18:32:32.633Z,82.52
2024-02-26T18:35:01.103Z,82.40
2024-02-26T18:37:29.983Z,82.37
2024-02-26T18:39:58.097Z,82.45
2024-02-26T18:42:31.290Z,82.53
2024-02-26T18:45:00.195Z,82.49
2024-02-26T18:47:28.537Z,82.19
2024-02-26T18:49:58.638Z,82.46
2024-02-26T18:52:26.936Z,82.38
2024-02-26T18:54:55.144Z,82.21
2024-02-26T18:57:25.068Z,82.40
2024-02-26T18:59:53.671Z,82.82
2024-02-26T19:02:22.339Z,82.30
2024-02-26T19:04:50.923Z,82.55
2024-02-26T19:07:19.613Z,82.71
2024-02-26T19:09:47.882Z,82.42
2024-02-26T19:12:17.492Z,82.67
2024-02-26T19:14:46.550Z,82.42
2024-02-26T19:17:15.371Z,82.74
2024-02-26T19:19:43.909Z,82.43
2024-02-26T19:22:14.366Z,82.68
2024-02-26T19:24:44.941Z,82.47
2024-02-26T19:27:14.752Z,82.91
2024-02-26T19:29:43.224Z,82.79
2024-02-26T19:32:12.713Z,83.05
2024-02-26T19:34:43.895Z,82.82
2024-02-26T19:37:14.272Z,83.21
2024-02-26T19:39:43.168Z,83.41
2024-02-26T19:42:13.950Z,83.12
2024-02-26T19:44:42.339Z,82.98
2024-02-26T19:47:10.592Z,83.44
2024-02-26T19:49:45.084Z,83.47
2024-02-26T19:52:16.024Z,83.30
2024-02-26T19:54:48.353Z,83.14
2024-02-26T19:57:17.174Z,83.20
2024-02-26T19:59:46.003Z,83.65
2024-02-26T20:02:15.974Z,83.27
2024-02-26T20:04:44.674Z,83.76
2024-02-26T20:07:15.743Z,83.62
2024-02-26T20:09:44.214Z,83.30
2024-02-26T20:12:13.095Z,83.48
2024-02-26T20:14:41.567Z,83.39
2024-02-26T20:17:13.237Z,83.78
2024-02-26T20:19:44.712Z,83.58
2024-02-26T20:22:15.411Z,84.02
2024-02-26T20:24:43.977Z,84.07
2024-02-26T20:27:12.683Z,83.80
2024-02-26T20:29:46.653Z,84.14
2024-02-26T20:32:15.058Z,83.86
2024-02-26T20:34:43.957Z,84.33
2024-02-26T20:37:12.360Z,84.25
2024-02-26T20:39:40.698Z,84.01
2024-02-26T20:42:09.188Z,84.63
2024-02-26T20:44:39.064Z,84.32
2024-02-26T20:47:07.659Z,84.12
2024-02-26T20:49:35.958Z,84.49
2024-02-26T20:52:04.431Z,84.61
2024-02-26T20:54:34.300Z,84.71
2024-02-26T20:57:04.204Z,84.81
2024-02-26T20:59:33.880Z,84.24
2024-02-26T21:02:02.123Z,84.59
2024-02-26T21:04:32.036Z,84.47
2024-02-26T21:07:00.173Z,84.80
2024-02-26T21:09:27.864Z,84.49
2024-02-26T21:11:55.871Z,84.80
2024-02-26T21:14:23.372Z,85.03
2024-02-26T21:16:51.085Z,85.08
2024-02-26T21:19:19.107Z,85.22
2024-02-26T21:21:47.210Z,84.67
2024-02-26T21:24:14.428Z,84.71
2024-02-26T21:26:42.285Z,85.10
2024-02-26T21:29:09.525Z,85.37
2024-02-26T21:31:40.413Z,85.54
2024-02-26T21:34:07.804Z,85.49
2024-02-26T21:36:36.417Z,85.20
2024-02-26T21:39:04.469Z,85.25
2024-02-26T21:41:31.731Z,85.11
2024-02-26T21:44:07.293Z,84.91
2024-02-26T21:46:36.610Z,85.05
2024-02-26T21:49:04.178Z,85.20
2024-02-26T21:51:31.606Z,85.23
2024-02-26T21:53:59.042Z,85.35
2024-02-26T21:56:26.544Z,85.44
2024-02-26T21:58:53.746Z,85.53
2024-02-26T22:01:21.229Z,85.28
2024-02-26T22:03:48.674Z,85.23
2024-02-26T22:06:19.132Z,85.52
2024-02-26T22:08:46.396Z,85.48
2024-02-26T22:11:13.685Z,85.20
2024-02-26T22:13:40.968Z,84.99
2024-02-26T22:16:11.149Z,85.11
2024-02-26T22:18:38.482Z,85.24
2024-02-26T22:21:06.222Z,85.47
2024-02-26T22:23:33.461Z,85.58
2024-02-26T22:26:00.737Z,85.32
2024-02-26T22:28:28.019Z,85.01
2024-02-26T22:30:55.403Z,85.35
2024-02-26T22:33:22.835Z,85.35
2024-02-26T22:35:50.140Z,85.12
2024-02-26T22:38:18.304Z,85.17
2024-02-26T22:40:45.598Z,85.09
2024-02-26T22:43:13.478Z,85.36
2024-02-26T22:45:41.071Z,85.54
2024-02-26T22:48:09.155Z,85.37
2024-02-26T22:50:36.933Z,85.58
2024-02-26T22:53:04.467Z,85.25
2024-02-26T22:55:31.725Z,85.48
2024-02-26T22:57:58.967Z,85.52
2024-02-26T23:00:28.346Z,85.50
2024-02-26T23:02:56.175Z,85.74
2024-02-26T23:05:25.229Z,85.35
2024-02-26T23:07:53.688Z,85.15
2024-02-26T23:10:21.385Z,85.21
2024-02-26T23:12:48.692Z,85.78
2024-02-26T23:15:16.152Z,85.89
2024-02-26T23:17:44.097Z,85.65
2024-02-26T23:20:12.363Z,85.81
2024-02-26T23:22:43.572Z,86.05
2024-02-26T23:25:12.086Z,85.35
2024-02-26T23:27:39.774Z,85.40
2024-02-26T23:30:07.721Z,85.68
2024-02-26T23:32:35.295Z,85.84
2024-02-26T23:35:02.924Z,85.54
2024-02-26T23:37:30.270Z,85.73
2024-02-26T23:39:57.453Z,86.30
2024-02-26T23:42:24.809Z,86.25
2024-02-26T23:44:52.923Z,85.79
2024-02-26T23:47:20.256Z,85.89
2024-02-26T23:49:47.527Z,86.25
2024-02-26T23:52:14.862Z,86.10
2024-02-26T23:54:42.224Z,85.98
2024-02-26T23:57:09.519Z,86.38
2024-02-26T23:59:36.901Z,86.16
